Waterville Valley, New Hampshire
Current Conditions -  °F | °C
As of 5:55 PM on Tuesday 27 Jan 2015 (Local Time) from K1P1 Reporting Station
Light Snow Light Snow  
Wind Chill: -5°   Ceiling: 5500
Heat Index: 10°   Visibility: 7mi
Dew Point:   Wind: 14mph
Humidity: 87%   Direction: 280°W
Pressure: 29.67"   Gusts: 20mph
Location:  43.95°N, 71.5°W
Report Text: K1P1 272255Z AUTO 28012G17KT 7SM -SN OVC055 M12/M14 A2967 RMK AO2 T11201137
Loading
Personal Weather Stations






























Interactive Weather Map New forecast layout! Learn more

10-Day Weather Forecast

Advertisements
Track Severe Weather on mobile